Time;durP1;ratioP1;P1;durP2;ratioP2;P2;SDS_P1;SDS_P2;PMS_P1;PMS_P2;Temp;Humidity;BMP_temperature;BMP_pressure;BME280_temperature;BME280_humidity;BME280_pressure;Samples;Min_cycle;Max_cycle;Signal;HPM_P1;HPM_P2
2023/03/17 00:01:41;;;;;;;0.40;0.40;;;8.30;99.90;;;;;;6217813;23;20065;-72
2023/03/17 00:04:11;;;;;;;0.40;0.40;;;8.40;99.90;;;;;;6218769;23;20012;-72
2023/03/17 00:06:37;;;;;;;0.40;0.40;;;8.40;99.90;;;;;;6218837;23;20298;-72
2023/03/17 00:09:06;;;;;;;0.40;0.40;;;8.40;99.90;;;;;;6218244;23;20338;-72
2023/03/17 00:11:31;;;;;;;0.30;0.30;;;8.40;99.90;;;;;;6216216;23;20492;-72
2023/03/17 00:13:57;;;;;;;0.30;0.30;;;8.40;99.90;;;;;;6215988;23;20012;-72
2023/03/17 00:16:25;;;;;;;0.30;0.30;;;8.40;99.90;;;;;;6217628;23;20096;-72
2023/03/17 00:18:52;;;;;;;0.43;0.43;;;8.40;99.90;;;;;;6218107;23;20016;-72
2023/03/17 00:21:26;;;;;;;0.40;0.40;;;8.30;99.90;;;;;;6218240;23;20445;-72
2023/03/17 00:23:53;;;;;;;0.30;0.30;;;8.30;99.90;;;;;;6217970;23;20024;-72
2023/03/17 00:26:19;;;;;;;0.40;0.40;;;8.30;99.90;;;;;;6217908;23;20016;-72
2023/03/17 00:28:45;;;;;;;0.30;0.30;;;8.30;99.90;;;;;;6217842;23;20341;-72
2023/03/17 00:31:23;;;;;;;0.30;0.30;;;8.40;99.90;;;;;;6242292;23;20365;-72
2023/03/17 00:33:51;;;;;;;0.30;0.30;;;8.40;99.90;;;;;;6217922;23;20013;-72
2023/03/17 00:36:23;;;;;;;0.30;0.30;;;8.40;99.90;;;;;;6217773;23;20333;-72
2023/03/17 00:38:51;;;;;;;0.30;0.30;;;8.40;99.90;;;;;;6215911;23;20017;-72
2023/03/17 00:41:17;;;;;;;0.32;0.32;;;8.30;99.90;;;;;;6217831;23;20005;-72
2023/03/17 00:43:43;;;;;;;0.30;0.30;;;8.40;99.90;;;;;;6217774;23;20310;-72
2023/03/17 00:46:22;;;;;;;0.38;0.38;;;8.30;99.90;;;;;;6217357;23;20517;-72
2023/03/17 00:48:48;;;;;;;0.22;0.22;;;8.30;99.90;;;;;;6217950;23;20052;-72
2023/03/17 00:51:17;;;;;;;0.20;0.20;;;8.30;99.90;;;;;;6217741;23;20012;-72
2023/03/17 00:53:43;;;;;;;0.30;0.30;;;8.30;99.90;;;;;;6241179;23;20039;-72
2023/03/17 00:56:18;;;;;;;0.30;0.30;;;8.30;99.90;;;;;;6190745;23;20110;-72
2023/03/17 00:58:44;;;;;;;0.40;0.40;;;8.30;99.90;;;;;;6217580;23;20019;-72
2023/03/17 01:01:10;;;;;;;0.30;0.30;;;8.30;99.90;;;;;;6215610;23;20051;-72
2023/03/17 01:03:36;;;;;;;0.28;0.28;;;8.30;99.90;;;;;;6217505;23;20338;-72
2023/03/17 01:06:03;;;;;;;0.35;0.35;;;8.30;99.90;;;;;;6217633;23;20096;-72
2023/03/17 01:08:30;;;;;;;0.45;0.45;;;8.20;99.90;;;;;;6217023;23;20080;-72
2023/03/17 01:10:57;;;;;;;0.30;0.30;;;8.20;99.90;;;;;;6217504;23;20326;-72
2023/03/17 01:13:23;;;;;;;0.32;0.32;;;8.20;99.90;;;;;;6215351;23;20020;-72
2023/03/17 01:15:50;;;;;;;0.40;0.40;;;8.20;99.90;;;;;;6217367;23;20005;-72
2023/03/17 01:18:18;;;;;;;0.30;0.30;;;8.20;99.90;;;;;;6217326;23;20004;-72
2023/03/17 01:20:44;;;;;;;0.30;0.30;;;8.20;99.90;;;;;;6217466;23;20013;-72
2023/03/17 01:23:11;;;;;;;0.40;0.40;;;8.20;99.90;;;;;;6217392;23;20055;-72
2023/03/17 01:25:40;;;;;;;0.30;0.30;;;8.20;99.90;;;;;;6217041;23;20038;-72
2023/03/17 01:28:06;;;;;;;0.30;0.30;;;8.10;99.90;;;;;;6215429;23;20040;-72
2023/03/17 01:30:36;;;;;;;0.30;0.30;;;8.10;99.90;;;;;;6215339;23;20043;-72
2023/03/17 01:33:02;;;;;;;;;;;8.10;99.90;;;;;;6215824;23;20012;-72
2023/03/17 01:35:28;;;;;;;0.40;0.40;;;8.10;99.90;;;;;;6190302;23;19912;-72
2023/03/17 01:37:56;;;;;;;0.30;0.30;;;8.10;99.90;;;;;;6215353;23;20067;-72
2023/03/17 01:40:26;;;;;;;0.30;0.30;;;8.10;99.90;;;;;;6217161;23;20088;-72
2023/03/17 01:43:00;;;;;;;;;;;8.10;99.90;;;;;;6215746;23;20024;-72
2023/03/17 01:46:05;;;;;;;0.30;0.30;;;8.10;99.90;;;;;;6215176;23;19912;-72
2023/03/17 01:48:36;;;;;;;0.30;0.30;;;8.10;99.90;;;;;;6215177;23;20089;-72
2023/03/17 01:51:03;;;;;;;0.30;0.30;;;8.10;99.90;;;;;;6217180;23;20012;-72
2023/03/17 01:53:28;;;;;;;0.40;0.40;;;8.20;99.90;;;;;;6216656;23;20019;-72
2023/03/17 01:55:56;;;;;;;0.30;0.30;;;8.10;99.90;;;;;;6217306;23;20013;-72
2023/03/17 01:58:24;;;;;;;0.30;0.30;;;8.20;99.90;;;;;;6217658;23;20071;-72
2023/03/17 02:00:50;;;;;;;0.30;0.30;;;8.10;99.90;;;;;;6217121;23;20386;-72
2023/03/17 02:03:16;;;;;;;0.40;0.40;;;8.10;99.90;;;;;;6216979;23;20036;-72
2023/03/17 02:05:42;;;;;;;0.35;0.35;;;8.10;99.90;;;;;;6216685;23;20012;-72
2023/03/17 02:08:15;;;;;;;0.30;0.30;;;8.10;99.90;;;;;;6215002;23;20437;-72
2023/03/17 02:10:41;;;;;;;0.30;0.30;;;8.00;99.90;;;;;;6216974;23;20016;-72
2023/03/17 02:13:10;;;;;;;0.50;0.50;;;8.00;99.90;;;;;;6216840;23;20019;-72
2023/03/17 02:15:40;;;;;;;0.40;0.40;;;8.00;99.90;;;;;;6214958;23;20067;-72
2023/03/17 02:18:06;;;;;;;0.30;0.30;;;8.00;99.90;;;;;;6217456;23;20013;-72
2023/03/17 02:20:33;;;;;;;0.30;0.30;;;8.00;99.90;;;;;;6216587;23;20055;-72
2023/03/17 02:23:00;;;;;;;0.40;0.40;;;8.10;99.90;;;;;;6214865;23;20016;-72
2023/03/17 02:25:29;;;;;;;0.40;0.40;;;8.10;99.90;;;;;;6214837;23;20009;-72
2023/03/17 02:28:00;;;;;;;0.40;0.40;;;8.00;99.90;;;;;;6216722;23;20016;-72
2023/03/17 02:30:27;;;;;;;0.30;0.30;;;8.10;99.90;;;;;;6216747;23;20016;-72
2023/03/17 02:32:53;;;;;;;0.30;0.30;;;8.10;99.90;;;;;;6214793;23;20071;-72
2023/03/17 02:35:20;;;;;;;0.30;0.30;;;8.10;99.90;;;;;;6214809;23;20386;-72
2023/03/17 02:37:46;;;;;;;0.40;0.40;;;8.00;99.90;;;;;;6215650;23;20298;-72
2023/03/17 02:40:14;;;;;;;0.30;0.30;;;8.00;99.90;;;;;;6214694;23;20016;-72
2023/03/17 02:42:40;;;;;;;0.40;0.40;;;8.10;99.90;;;;;;6216616;23;20009;-72
2023/03/17 02:45:08;;;;;;;0.47;0.47;;;8.10;99.90;;;;;;6216574;23;20395;-72
2023/03/17 02:47:35;;;;;;;0.30;0.30;;;8.10;99.90;;;;;;6216182;23;20410;-72
2023/03/17 02:50:01;;;;;;;0.38;0.38;;;8.00;99.90;;;;;;6216786;23;20306;-72
2023/03/17 02:52:26;;;;;;;0.40;0.40;;;8.10;99.90;;;;;;6217030;23;20012;-72
2023/03/17 02:54:52;;;;;;;0.30;0.30;;;8.10;99.90;;;;;;6214304;23;20054;-72
2023/03/17 02:57:18;;;;;;;0.40;0.40;;;8.00;99.90;;;;;;6216537;23;20017;-72
2023/03/17 02:59:43;;;;;;;0.40;0.40;;;8.00;99.90;;;;;;6216415;23;20341;-72
2023/03/17 03:02:10;;;;;;;0.30;0.30;;;8.00;99.90;;;;;;6216018;23;20079;-72
2023/03/17 03:04:36;;;;;;;0.32;0.32;;;8.00;99.90;;;;;;6216543;23;20079;-72
2023/03/17 03:07:02;;;;;;;0.40;0.40;;;8.00;99.90;;;;;;6217445;23;20021;-72
2023/03/17 03:09:29;;;;;;;0.30;0.30;;;8.00;99.90;;;;;;6216386;23;20035;-72
2023/03/17 03:11:54;;;;;;;0.40;0.40;;;7.90;99.90;;;;;;6216380;23;20019;-72
2023/03/17 03:14:20;;;;;;;0.32;0.32;;;8.00;99.90;;;;;;6216301;23;20021;-72
2023/03/17 03:16:46;;;;;;;0.40;0.40;;;8.00;99.90;;;;;;6216298;23;20079;-72
2023/03/17 03:19:12;;;;;;;0.40;0.40;;;7.90;99.90;;;;;;6216465;23;20091;-72
2023/03/17 03:21:38;;;;;;;0.40;0.40;;;8.00;99.90;;;;;;6216298;23;20505;-72
2023/03/17 03:24:04;;;;;;;0.30;0.30;;;8.00;99.90;;;;;;6216324;23;20023;-72
2023/03/17 03:26:30;;;;;;;0.40;0.40;;;8.00;99.90;;;;;;6216543;23;20012;-72
2023/03/17 03:28:57;;;;;;;0.45;0.45;;;7.90;99.90;;;;;;6216260;23;20009;-72
2023/03/17 03:31:23;;;;;;;0.40;0.40;;;7.90;99.90;;;;;;6215456;23;20449;-72
2023/03/17 03:33:49;;;;;;;0.30;0.30;;;8.00;99.90;;;;;;6216151;23;20021;-72
2023/03/17 03:36:14;;;;;;;0.40;0.40;;;7.90;99.90;;;;;;6214527;23;20013;-72
2023/03/17 03:38:40;;;;;;;0.40;0.40;;;7.90;99.90;;;;;;6215853;23;20012;-72
2023/03/17 03:41:07;;;;;;;0.40;0.40;;;7.90;99.90;;;;;;6216202;23;20009;-72
2023/03/17 03:43:33;;;;;;;0.45;0.45;;;7.90;99.90;;;;;;6216143;23;20115;-72
2023/03/17 03:45:59;;;;;;;0.40;0.40;;;8.00;99.90;;;;;;6214265;23;20016;-72
2023/03/17 03:48:24;;;;;;;0.40;0.40;;;8.00;99.90;;;;;;6216433;23;20015;-72
2023/03/17 03:50:55;;;;;;;0.40;0.40;;;8.00;99.90;;;;;;6216197;23;20434;-72
2023/03/17 03:53:21;;;;;;;0.30;0.30;;;8.00;99.90;;;;;;6214424;23;20048;-71
2023/03/17 03:55:46;;;;;;;0.75;0.40;;;7.90;99.90;;;;;;6216212;23;20418;-72
2023/03/17 03:58:13;;;;;;;0.32;0.32;;;8.00;99.90;;;;;;6215106;23;20032;-72
2023/03/17 04:00:38;;;;;;;0.30;0.30;;;8.00;99.90;;;;;;6216191;23;20019;-72
2023/03/17 04:03:04;;;;;;;0.30;0.30;;;8.00;99.90;;;;;;6216124;23;20004;-72
2023/03/17 04:05:30;;;;;;;0.40;0.40;;;8.00;99.90;;;;;;6216222;23;20433;-72
2023/03/17 04:07:56;;;;;;;0.40;0.40;;;8.00;99.90;;;;;;6216083;23;20008;-72
2023/03/17 04:10:22;;;;;;;0.50;0.50;;;8.00;99.90;;;;;;6216084;23;20008;-72
2023/03/17 04:12:47;;;;;;;0.30;0.30;;;8.00;99.90;;;;;;6216172;23;20058;-72
2023/03/17 04:15:15;;;;;;;0.40;0.40;;;8.00;99.90;;;;;;6214065;23;20028;-72
2023/03/17 04:17:41;;;;;;;0.30;0.30;;;8.00;99.90;;;;;;6216135;23;20040;-72
2023/03/17 04:20:07;;;;;;;0.38;0.38;;;8.10;99.90;;;;;;6216176;23;20059;-72
2023/03/17 04:22:33;;;;;;;0.40;0.40;;;8.10;99.90;;;;;;6216195;23;20005;-72
2023/03/17 04:24:59;;;;;;;0.40;0.40;;;8.00;99.90;;;;;;6215971;23;20342;-72
2023/03/17 04:27:25;;;;;;;0.47;0.47;;;8.00;99.90;;;;;;6216599;23;20394;-72
2023/03/17 04:29:51;;;;;;;0.30;0.30;;;8.00;99.90;;;;;;6240456;23;20051;-72
2023/03/17 04:32:17;;;;;;;0.40;0.40;;;8.00;99.90;;;;;;6215943;23;20009;-72
2023/03/17 04:34:42;;;;;;;0.30;0.30;;;8.00;99.90;;;;;;6215935;23;20020;-72
2023/03/17 04:37:09;;;;;;;0.40;0.40;;;8.00;99.90;;;;;;6214500;23;20047;-72
2023/03/17 04:39:35;;;;;;;0.30;0.30;;;7.90;99.90;;;;;;6215939;23;20374;-72
2023/03/17 04:42:02;;;;;;;0.40;0.40;;;7.90;99.90;;;;;;6214110;23;20473;-72
2023/03/17 04:44:27;;;;;;;0.30;0.30;;;7.90;99.90;;;;;;6217565;23;20373;-72
2023/03/17 04:46:53;;;;;;;0.40;0.40;;;7.90;99.90;;;;;;6217747;23;20128;-72
2023/03/17 04:49:19;;;;;;;0.30;0.30;;;7.90;99.90;;;;;;6215935;23;20013;-72
2023/03/17 04:51:44;;;;;;;0.32;0.32;;;7.90;99.90;;;;;;6217699;23;20328;-72
2023/03/17 04:54:11;;;;;;;0.40;0.40;;;7.90;99.90;;;;;;6217272;23;20015;-72
2023/03/17 04:56:37;;;;;;;0.40;0.40;;;7.90;99.90;;;;;;6217683;23;20015;-72
2023/03/17 04:59:03;;;;;;;0.32;0.32;;;7.90;99.90;;;;;;6217631;23;20407;-72
2023/03/17 05:01:29;;;;;;;0.32;0.32;;;7.90;99.90;;;;;;6217604;23;20005;-72
2023/03/17 05:03:55;;;;;;;0.30;0.30;;;7.90;99.90;;;;;;6215722;23;20139;-72
2023/03/17 05:06:20;;;;;;;0.30;0.30;;;7.90;99.90;;;;;;6217482;23;20021;-72
2023/03/17 05:08:46;;;;;;;0.47;0.40;;;7.90;99.90;;;;;;6215605;23;20264;-72
2023/03/17 05:11:13;;;;;;;0.40;0.40;;;7.90;99.90;;;;;;6215608;23;20020;-72
2023/03/17 05:13:41;;;;;;;0.30;0.30;;;7.90;99.90;;;;;;6217343;23;20353;-72
2023/03/17 05:16:08;;;;;;;0.40;0.40;;;7.80;99.90;;;;;;6215555;23;20087;-72
2023/03/17 05:18:34;;;;;;;0.30;0.30;;;7.80;99.90;;;;;;6215466;23;20040;-72
2023/03/17 05:21:00;;;;;;;0.30;0.30;;;7.80;99.90;;;;;;6216020;23;20013;-72
2023/03/17 05:23:26;;;;;;;0.40;0.40;;;7.70;99.90;;;;;;6217920;23;20012;-72
2023/03/17 05:25:51;;;;;;;0.30;0.30;;;7.80;99.90;;;;;;6215564;23;20059;-72
2023/03/17 05:28:19;;;;;;;0.50;0.50;;;7.70;99.90;;;;;;6217386;23;20016;-71
2023/03/17 05:30:46;;;;;;;0.30;0.30;;;7.70;99.90;;;;;;6217376;23;20385;-72
2023/03/17 05:33:13;;;;;;;0.40;0.40;;;7.70;99.90;;;;;;6217190;23;20046;-72
2023/03/17 05:35:40;;;;;;;0.30;0.30;;;7.70;99.90;;;;;;6217302;23;20080;-72
2023/03/17 05:38:07;;;;;;;0.30;0.30;;;7.70;99.90;;;;;;6215357;23;20016;-72
2023/03/17 05:40:33;;;;;;;0.40;0.40;;;7.70;99.90;;;;;;6217244;23;20040;-72
2023/03/17 05:42:58;;;;;;;0.40;0.40;;;7.70;99.90;;;;;;6215259;23;20009;-72
2023/03/17 05:45:24;;;;;;;0.38;0.38;;;7.80;99.90;;;;;;6216952;23;20044;-72
2023/03/17 05:47:50;;;;;;;0.40;0.40;;;7.70;99.90;;;;;;6215088;23;20020;-72
2023/03/17 05:50:16;;;;;;;0.30;0.30;;;7.80;99.90;;;;;;6215230;23;20048;-72
2023/03/17 05:52:42;;;;;;;0.30;0.30;;;7.80;99.90;;;;;;6216716;23;20013;-71
2023/03/17 05:55:08;;;;;;;0.30;0.30;;;7.90;99.90;;;;;;6215982;23;20047;-71
2023/03/17 05:57:34;;;;;;;0.47;0.47;;;7.90;99.90;;;;;;6216960;23;20442;-70
2023/03/17 05:59:59;;;;;;;0.40;0.40;;;7.90;99.90;;;;;;6217034;23;20048;-67
2023/03/17 06:02:25;;;;;;;0.32;0.32;;;7.90;99.90;;;;;;6216977;23;20092;-67
2023/03/17 06:04:51;;;;;;;0.40;0.40;;;7.90;99.90;;;;;;6217151;23;20012;-69
2023/03/17 06:07:17;;;;;;;0.40;0.40;;;7.90;99.90;;;;;;6216945;23;20010;-72
2023/03/17 06:09:42;;;;;;;0.40;0.40;;;8.00;99.90;;;;;;6216611;23;20043;-68
2023/03/17 06:12:09;;;;;;;0.30;0.30;;;8.00;99.90;;;;;;6217558;23;20130;-71
2023/03/17 06:14:35;;;;;;;0.40;0.40;;;8.10;99.90;;;;;;6216799;23;20023;-71
2023/03/17 06:17:01;;;;;;;0.40;0.40;;;8.10;99.90;;;;;;6217041;23;20008;-71
2023/03/17 06:19:27;;;;;;;0.40;0.40;;;8.20;99.90;;;;;;6217017;23;20009;-72
2023/03/17 06:21:52;;;;;;;0.32;0.32;;;8.20;99.90;;;;;;6214952;23;20013;-71
2023/03/17 06:24:18;;;;;;;0.40;0.40;;;8.20;99.90;;;;;;6214998;23;20094;-72
2023/03/17 06:26:44;;;;;;;0.35;0.35;;;8.30;99.90;;;;;;6216722;23;20016;-68
2023/03/17 06:29:11;;;;;;;0.32;0.32;;;8.40;99.90;;;;;;6216726;23;20013;-67
2023/03/17 06:31:37;;;;;;;0.40;0.40;;;8.40;99.90;;;;;;6216786;23;20083;-67
2023/03/17 06:34:04;;;;;;;0.47;0.47;;;8.50;99.90;;;;;;6216234;23;20493;-67
2023/03/17 06:36:31;;;;;;;0.40;0.40;;;8.50;99.90;;;;;;6214859;23;20008;-69
2023/03/17 06:38:57;;;;;;;0.40;0.40;;;8.60;99.90;;;;;;6216261;23;20009;-71
2023/03/17 06:41:23;;;;;;;0.28;0.28;;;8.60;99.90;;;;;;6214710;23;20028;-71
2023/03/17 06:43:49;;;;;;;0.47;0.30;;;8.70;99.90;;;;;;6216537;23;20473;-71
2023/03/17 06:46:15;;;;;;;0.38;0.38;;;8.70;99.90;;;;;;6214588;23;20012;-71
2023/03/17 06:48:41;;;;;;;0.40;0.40;;;8.70;99.90;;;;;;6216591;23;20452;-71
2023/03/17 06:51:07;;;;;;;0.38;0.38;;;8.90;99.90;;;;;;6216615;23;20497;-74
2023/03/17 06:53:32;;;;;;;0.25;0.25;;;8.90;99.90;;;;;;6214365;23;20377;-71
2023/03/17 06:55:58;;;;;;;0.40;0.40;;;8.90;99.90;;;;;;6214692;23;20016;-70
2023/03/17 06:58:24;;;;;;;0.30;0.30;;;8.90;99.90;;;;;;6214635;23;20008;-71
2023/03/17 07:00:52;;;;;;;0.40;0.40;;;8.90;99.90;;;;;;6216544;23;20047;-70
2023/03/17 07:03:20;;;;;;;0.40;0.40;;;8.90;99.90;;;;;;6214605;23;20043;-70
2023/03/17 07:05:46;;;;;;;0.30;0.30;;;8.90;99.90;;;;;;6216456;23;20017;-72
2023/03/17 07:08:12;;;;;;;0.32;0.32;;;9.00;99.90;;;;;;6216099;23;20319;-72
2023/03/17 07:10:41;;;;;;;0.40;0.40;;;9.00;99.90;;;;;;6214453;23;20015;-72
2023/03/17 07:13:07;;;;;;;0.30;0.30;;;9.00;99.90;;;;;;6214297;23;20019;-72
2023/03/17 07:15:34;;;;;;;0.30;0.30;;;9.00;99.90;;;;;;6214430;23;20012;-72
2023/03/17 07:18:00;;;;;;;0.30;0.30;;;9.10;99.90;;;;;;6240121;23;20015;-72
2023/03/17 07:20:26;;;;;;;0.30;0.30;;;9.20;99.90;;;;;;6216361;23;20031;-72
2023/03/17 07:22:52;;;;;;;0.40;0.40;;;9.30;99.90;;;;;;6216187;23;20445;-72
2023/03/17 07:25:18;;;;;;;0.30;0.30;;;9.30;99.90;;;;;;6216305;23;20453;-76
2023/03/17 07:27:44;;;;;;;0.30;0.30;;;9.40;99.90;;;;;;6214730;23;20035;-77
2023/03/17 07:30:11;;;;;;;0.40;0.40;;;9.30;99.90;;;;;;6214454;23;20051;-76
2023/03/17 07:32:37;;;;;;;0.28;0.28;;;9.30;99.90;;;;;;6214481;23;20079;-77
2023/03/17 07:35:03;;;;;;;0.40;0.40;;;9.30;99.90;;;;;;6189311;23;20090;-75
2023/03/17 07:37:29;;;;;;;0.40;0.40;;;9.40;99.90;;;;;;6216309;23;20044;-75
2023/03/17 07:39:55;;;;;;;0.40;0.40;;;9.40;99.90;;;;;;6214548;23;20495;-76
2023/03/17 07:42:21;;;;;;;0.40;0.40;;;9.50;99.90;;;;;;6216156;23;20081;-76
2023/03/17 07:44:47;;;;;;;0.28;0.28;;;9.50;99.90;;;;;;6216221;23;20044;-76
2023/03/17 07:47:13;;;;;;;0.40;0.40;;;9.60;99.90;;;;;;6216297;23;20016;-75
2023/03/17 07:49:39;;;;;;;0.40;0.40;;;9.60;99.90;;;;;;6214544;23;20023;-76
2023/03/17 07:52:07;;;;;;;0.40;0.40;;;9.70;99.90;;;;;;6214661;23;20362;-75
2023/03/17 07:54:33;;;;;;;0.40;0.40;;;9.70;99.90;;;;;;6213868;23;20349;-77
2023/03/17 07:56:59;;;;;;;0.40;0.40;;;9.80;99.90;;;;;;6214215;23;20020;-76
2023/03/17 07:59:25;;;;;;;0.43;0.40;;;9.90;99.90;;;;;;6214281;23;20032;-76
2023/03/17 08:01:50;;;;;;;0.30;0.30;;;9.90;99.90;;;;;;6214234;23;20441;-76
2023/03/17 08:04:16;;;;;;;0.45;0.45;;;9.90;99.90;;;;;;6214220;23;20059;-72
2023/03/17 08:06:42;;;;;;;0.30;0.30;;;9.90;99.90;;;;;;6214304;23;20087;-76
2023/03/17 08:09:12;;;;;;;0.30;0.30;;;10.00;99.90;;;;;;6216082;23;20016;-75
2023/03/17 08:11:37;;;;;;;0.40;0.40;;;10.00;99.90;;;;;;6216143;23;20067;-75
2023/03/17 08:14:06;;;;;;;0.30;0.30;;;10.10;99.90;;;;;;6215675;23;20016;-75
2023/03/17 08:16:32;;;;;;;0.30;0.30;;;10.20;99.90;;;;;;6216149;23;20087;-75
2023/03/17 08:18:58;;;;;;;0.40;0.40;;;10.30;99.90;;;;;;6215677;23;20106;-75
2023/03/17 08:21:25;;;;;;;0.30;0.30;;;10.40;99.90;;;;;;6191292;23;20015;-75
2023/03/17 08:23:52;;;;;;;0.20;0.20;;;10.40;99.90;;;;;;6217585;23;20019;-75
2023/03/17 08:26:17;;;;;;;0.25;0.25;;;10.50;99.90;;;;;;6217999;23;20008;-75
2023/03/17 08:28:43;;;;;;;0.30;0.30;;;10.50;99.90;;;;;;6216037;23;20091;-75
2023/03/17 08:31:12;;;;;;;0.30;0.30;;;10.60;99.90;;;;;;6190949;23;20040;-75
2023/03/17 08:33:39;;;;;;;0.22;0.20;;;10.60;99.90;;;;;;6215889;23;20051;-75
2023/03/17 08:36:08;;;;;;;0.30;0.30;;;10.70;99.90;;;;;;6217971;23;20080;-75
2023/03/17 08:38:35;;;;;;;0.40;0.40;;;10.60;99.90;;;;;;6216265;23;20009;-75
2023/03/17 08:41:02;;;;;;;0.30;0.30;;;10.60;99.90;;;;;;6215938;23;20008;-74
2023/03/17 08:43:28;;;;;;;0.40;0.40;;;10.70;99.90;;;;;;6215786;23;20020;-75
2023/03/17 08:46:01;;;;;;;0.30;0.30;;;10.80;99.90;;;;;;6215825;23;20017;-75
2023/03/17 08:48:27;;;;;;;0.30;0.30;;;10.80;99.90;;;;;;6217741;23;20092;-74
2023/03/17 08:50:53;;;;;;;0.40;0.40;;;10.90;99.90;;;;;;6217790;23;20379;-74
2023/03/17 08:53:19;;;;;;;0.40;0.40;;;10.90;99.90;;;;;;6217597;23;20009;-73
2023/03/17 08:55:45;;;;;;;0.30;0.30;;;11.00;99.90;;;;;;6217663;23;20100;-72
2023/03/17 08:58:10;;;;;;;0.30;0.30;;;11.10;99.90;;;;;;6215797;23;20013;-72
2023/03/17 09:00:36;;;;;;;0.30;0.30;;;11.20;99.90;;;;;;6217637;23;20307;-76
2023/03/17 09:03:02;;;;;;;0.30;0.30;;;11.20;99.90;;;;;;6217576;23;20396;-73
2023/03/17 09:05:28;;;;;;;0.30;0.30;;;11.20;99.90;;;;;;6217705;23;20012;-73
2023/03/17 09:07:53;;;;;;;0.30;0.30;;;11.30;99.90;;;;;;6215707;23;20048;-73
2023/03/17 09:10:21;;;;;;;0.30;0.30;;;11.30;99.90;;;;;;6217587;23;20012;-73
2023/03/17 09:12:50;;;;;;;0.30;0.30;;;11.30;99.90;;;;;;6215582;23;20080;-73
2023/03/17 09:15:16;;;;;;;0.20;0.20;;;11.40;99.90;;;;;;6217292;23;20012;-73
2023/03/17 09:17:42;;;;;;;0.40;0.40;;;11.50;99.90;;;;;;6217053;23;20020;-73
2023/03/17 09:20:10;;;;;;;0.40;0.40;;;11.50;99.90;;;;;;6215713;23;20095;-73
2023/03/17 09:22:36;;;;;;;0.35;0.35;;;11.60;99.90;;;;;;6215453;23;20013;-73
2023/03/17 09:25:02;;;;;;;0.40;0.40;;;11.60;99.90;;;;;;6215895;23;20058;-73
2023/03/17 09:27:28;;;;;;;0.30;0.30;;;11.70;99.90;;;;;;6215424;23;20017;-73
2023/03/17 09:29:54;;;;;;;0.30;0.30;;;11.70;99.90;;;;;;6215379;23;20016;-73
2023/03/17 09:32:19;;;;;;;0.40;0.40;;;11.70;99.90;;;;;;6217266;23;20013;-73
2023/03/17 09:34:46;;;;;;;0.40;0.40;;;11.80;99.90;;;;;;6215287;23;20004;-73
2023/03/17 09:37:12;;;;;;;0.40;0.40;;;11.80;99.90;;;;;;6217442;23;20017;-73
2023/03/17 09:39:38;;;;;;;0.30;0.30;;;11.90;99.90;;;;;;6217291;23;20075;-73
2023/03/17 09:42:25;;;;;;;0.50;0.50;;;12.00;99.90;;;;;;6215425;23;20123;-73
2023/03/17 09:45:11;;;;;;;0.30;0.30;;;12.00;99.90;;;;;;6218021;23;20389;-73
2023/03/17 09:48:07;;;;;;;0.30;0.30;;;12.00;99.90;;;;;;6215333;23;20083;-73
2023/03/17 09:50:38;;;;;;;0.40;0.40;;;12.10;99.90;;;;;;6215380;23;20467;-73
2023/03/17 09:53:11;;;;;;;0.30;0.30;;;12.20;99.90;;;;;;6217214;23;20017;-73
2023/03/17 09:55:37;;;;;;;0.30;0.30;;;12.30;99.90;;;;;;6215120;23;20070;-73
2023/03/17 09:58:03;;;;;;;0.30;0.30;;;12.30;99.90;;;;;;6217122;23;20081;-73
2023/03/17 10:00:29;;;;;;;0.40;0.40;;;12.30;99.90;;;;;;6217039;23;20099;-74
2023/03/17 10:02:57;;;;;;;0.75;0.40;;;12.40;99.90;;;;;;6240892;23;20102;-73
2023/03/17 10:05:24;;;;;;;0.40;0.40;;;12.40;99.90;;;;;;6215080;23;20027;-73
2023/03/17 10:08:14;;;;;;;0.30;0.30;;;12.50;99.90;;;;;;6214995;23;20016;-73
2023/03/17 10:10:48;;;;;;;0.30;0.30;;;12.50;99.90;;;;;;6217026;23;20019;-74
2023/03/17 10:13:35;;;;;;;0.40;0.40;;;12.60;99.90;;;;;;6216851;23;20083;-73
2023/03/17 10:16:10;;;;;;;0.38;0.38;;;12.60;99.90;;;;;;6215080;23;20012;-74
2023/03/17 10:18:48;;;;;;;0.30;0.30;;;12.70;99.90;;;;;;6189853;23;20087;-73
2023/03/17 10:21:22;;;;;;;0.40;0.40;;;12.80;99.90;;;;;;6215140;23;20464;-73
2023/03/17 10:23:49;;;;;;;0.30;0.30;;;12.80;99.90;;;;;;6214973;23;20031;-73
2023/03/17 10:26:27;;;;;;;0.30;0.30;;;12.90;99.90;;;;;;6215289;23;20019;-73
2023/03/17 10:28:53;;;;;;;0.30;0.30;;;12.90;99.90;;;;;;6216754;23;20108;-73
2023/03/17 10:31:27;;;;;;;0.30;0.30;;;13.00;99.90;;;;;;6216704;23;20326;-70
2023/03/17 10:33:55;;;;;;;0.30;0.30;;;13.00;99.90;;;;;;6216725;23;20013;-86
2023/03/17 10:36:38;;;;;;;0.40;0.40;;;13.10;99.90;;;;;;6215005;23;20315;-75
2023/03/17 10:39:06;;;;;;;0.40;0.40;;;13.10;99.90;;;;;;6217082;23;20083;-75
2023/03/17 10:41:35;;;;;;;0.28;0.28;;;13.20;99.90;;;;;;6214539;23;20016;-71
2023/03/17 10:44:01;;;;;;;0.40;0.40;;;13.30;99.90;;;;;;6214831;23;20040;-72
2023/03/17 10:46:28;;;;;;;0.38;0.30;;;13.30;99.90;;;;;;6214711;23;20020;-71
2023/03/17 10:49:07;;;;;;;0.38;0.38;;;13.40;99.90;;;;;;6214653;23;20091;-71
2023/03/17 10:51:35;;;;;;;0.40;0.40;;;13.50;99.90;;;;;;6215163;23;20016;-71
2023/03/17 10:54:08;;;;;;;0.30;0.30;;;13.60;99.90;;;;;;6214603;23;20016;-72
2023/03/17 10:56:41;;;;;;;0.30;0.30;;;13.70;99.90;;;;;;6214631;23;20469;-71
2023/03/17 10:59:18;;;;;;;0.35;0.35;;;13.80;99.90;;;;;;6214630;23;20349;-71
2023/03/17 11:01:53;;;;;;;0.30;0.30;;;14.00;99.90;;;;;;6189548;23;20016;-72
2023/03/17 11:04:36;;;;;;;0.30;0.30;;;14.20;99.90;;;;;;6214617;23;20022;-72
2023/03/17 11:07:19;;;;;;;0.38;0.38;;;14.40;99.50;;;;;;6215073;23;20063;-72
2023/03/17 11:09:49;;;;;;;0.32;0.32;;;14.40;99.60;;;;;;6214988;23;20017;-72
2023/03/17 11:12:21;;;;;;;0.40;0.40;;;14.40;99.10;;;;;;6214530;23;20017;-76
2023/03/17 11:14:48;;;;;;;0.40;0.40;;;14.40;99.50;;;;;;6216411;23;20015;-75
2023/03/17 11:17:22;;;;;;;0.32;0.32;;;14.50;99.90;;;;;;6214525;23;20009;-76
2023/03/17 11:20:10;;;;;;;0.30;0.30;;;14.60;99.30;;;;;;6240105;23;20056;-77
2023/03/17 11:22:40;;;;;;;0.40;0.40;;;14.70;99.30;;;;;;6214629;23;20020;-77
2023/03/17 11:25:12;;;;;;;0.30;0.30;;;14.60;99.40;;;;;;6214471;23;20012;-77
2023/03/17 11:27:55;;;;;;;0.32;0.32;;;14.60;99.20;;;;;;6216280;23;20017;-76
2023/03/17 11:30:26;;;;;;;0.35;0.35;;;14.60;99.40;;;;;;6214594;23;20008;-76
2023/03/17 11:33:04;;;;;;;0.40;0.40;;;14.70;99.00;;;;;;6216667;23;20092;-75
2023/03/17 11:35:59;;;;;;;0.40;0.40;;;14.80;99.20;;;;;;6214469;23;20015;-75
2023/03/17 11:38:27;;;;;;;0.30;0.30;;;14.90;98.90;;;;;;6216278;23;20087;-70
2023/03/17 11:41:20;;;;;;;0.30;0.30;;;15.10;99.50;;;;;;6216817;23;20016;-70
2023/03/17 11:43:58;;;;;;;0.35;0.35;;;15.20;99.20;;;;;;6216851;23;20016;-72
2023/03/17 11:46:45;;;;;;;0.40;0.40;;;15.30;99.00;;;;;;6216292;23;20016;-72
2023/03/17 11:49:34;;;;;;;0.40;0.40;;;15.40;99.90;;;;;;6216290;23;20393;-72
2023/03/17 11:52:06;;;;;;;0.30;0.30;;;15.50;98.50;;;;;;6216451;23;20008;-72
2023/03/17 11:54:44;;;;;;;0.38;0.38;;;15.60;98.80;;;;;;6217731;23;20055;-72
2023/03/17 11:57:22;;;;;;;0.43;0.43;;;15.70;99.50;;;;;;6218254;23;20008;-72
2023/03/17 11:59:55;;;;;;;0.40;0.40;;;15.80;98.70;;;;;;6216298;23;20017;-72
2023/03/17 12:02:44;;;;;;;0.40;0.40;;;15.80;98.00;;;;;;6218246;23;20080;-72
2023/03/17 12:05:14;;;;;;;0.40;0.40;;;15.80;98.60;;;;;;6218845;23;20012;-72
2023/03/17 12:07:52;;;;;;;0.40;0.40;;;15.80;98.80;;;;;;6218249;23;20009;-73
2023/03/17 12:10:37;;;;;;;0.40;0.40;;;15.90;98.50;;;;;;6218055;23;20012;-72
2023/03/17 12:13:11;;;;;;;0.47;0.47;;;15.90;98.30;;;;;;6218059;23;20013;-71
2023/03/17 12:15:49;;;;;;;0.30;0.30;;;16.10;98.40;;;;;;6217992;23;20381;-73
2023/03/17 12:18:36;;;;;;;0.30;0.30;;;16.10;97.90;;;;;;6218040;23;20015;-71
2023/03/17 12:21:08;;;;;;;0.38;0.38;;;16.10;98.70;;;;;;6216259;23;20088;-71
2023/03/17 12:23:44;;;;;;;0.30;0.30;;;16.00;97.60;;;;;;6218087;23;20020;-71
2023/03/17 12:26:22;;;;;;;0.30;0.30;;;16.00;98.90;;;;;;6216163;23;20421;-72
2023/03/17 12:29:07;;;;;;;0.30;0.30;;;16.10;99.00;;;;;;6218061;23;20013;-73
2023/03/17 12:31:43;;;;;;;0.30;0.30;;;16.20;97.60;;;;;;6217949;23;20051;-74
2023/03/17 12:34:31;;;;;;;0.30;0.30;;;16.20;97.60;;;;;;6216034;23;20016;-75
2023/03/17 12:36:57;;;;;;;0.40;0.40;;;16.40;99.70;;;;;;6216114;23;20063;-73
2023/03/17 12:39:30;;;;;;;0.40;0.40;;;16.40;97.30;;;;;;6217900;23;20012;-76
2023/03/17 12:42:35;;;;;;;0.30;0.30;;;16.60;97.40;;;;;;6217898;23;20115;-73
2023/03/17 12:45:32;;;;;;;0.20;0.20;;;16.90;97.10;;;;;;6215942;23;20009;-73
2023/03/17 12:48:03;;;;;;;0.30;0.30;;;17.00;96.40;;;;;;6217691;23;20020;-73
2023/03/17 12:50:45;;;;;;;0.30;0.30;;;16.70;96.00;;;;;;6241555;23;20013;-71
2023/03/17 12:53:25;;;;;;;0.30;0.30;;;16.60;96.50;;;;;;6215826;23;20020;-78
2023/03/17 12:55:52;;;;;;;0.30;0.30;;;16.60;96.90;;;;;;6216081;23;20048;-90
2023/03/17 12:58:24;;;;;;;0.38;0.38;;;16.70;96.40;;;;;;6216997;23;20512;-89
2023/03/17 13:01:07;;;;;;;0.28;0.28;;;16.60;96.40;;;;;;6216917;23;20091;-90
2023/03/17 13:03:37;;;;;;;0.30;0.30;;;16.40;96.60;;;;;;6242569;23;20452;-90